Braman, Oklahoma
Current Conditions -  °F | °C
As of 3:53 PM on Monday 26 Jan 2015 (Local Time) from KPNC Reporting Station
Clear Clear  
Wind Chill: 73°   Ceiling: Unl
Heat Index: 73°   Visibility: 10mi
Dew Point: 34°   Wind: 16mph
Humidity: 24%   Direction: 300°WNW
Pressure: 29.98"   Gusts: 22mph
Location:  36.92°N, 97.33°W
Report Text: KPNC 262153Z AUTO 30014G19KT 10SM CLR 23/01 A2998 RMK AO2 SLP152 T02280011
Loading
Personal Weather Stations






























Interactive Weather Map New forecast layout! Learn more

10-Day Weather Forecast

Advertisements
Track Severe Weather on mobile